DLH758 EDDF-VOMM
Flight info
| Callsign | DLH758 |
|---|---|
| Flight time | N/A |
| Altitude | 31000 |
| Route | CINDY5L CINDY Z74 HAREM DCT ASLEP DCT TAKUT DCT DINKU L603 BESNI/N0460F350 L605 MIQ DCT ALUTU DCT BIBAG/N0456F370 Q104 AKIMA DCT STEIN DCT TEGRI DCT LUGEB DCT UDROS UM859 KARDE UL851 TBN UM11 REBLO P130 BODKA/N0456F390 P130 MAMED B449 RANAH L750 ZB G202 RK P628 IBANI Q23 RINTO RINTO2F |
| Aircraft | A343/H-SDE2E3FGHIJ3J5M1P2RWXYZ/LB1D1 |
Departure
| Time | 2026-05-06 03:49 |
|---|---|
| Airport | Frankfurt Main Airport (EDDF) |
Arrival
| Time | N/A |
|---|---|
| Airport | Chennai International Airport (VOMM) |
| Time | Latitude | Longitude | Altitude | Speed | Heading |
|---|---|---|---|---|---|
| 2026-05-06 03:41 | 50.04779 | 8.57024 | 361 ft | 0 kts | 205° |
| 2026-05-06 03:43 | 50.04772 | 8.57019 | 367 ft | 4 kts | 205° |
| 2026-05-06 03:43 | 50.04722 | 8.56983 | 368 ft | 11 kts | 205° |
| 2026-05-06 03:44 | 50.04638 | 8.56923 | 366 ft | 14 kts | 205° |
| 2026-05-06 03:44 | 50.04554 | 8.56887 | 362 ft | 10 kts | 193° |
| 2026-05-06 03:44 | 50.04488 | 8.56864 | 368 ft | 9 kts | 192° |
| 2026-05-06 03:44 | 50.04428 | 8.56846 | 369 ft | 8 kts | 190° |
| 2026-05-06 03:45 | 50.04374 | 8.56832 | 367 ft | 7 kts | 189° |
| 2026-05-06 03:45 | 50.04327 | 8.56823 | 367 ft | 6 kts | 180° |
| 2026-05-06 03:45 | 50.04288 | 8.56864 | 370 ft | 9 kts | 116° |
| 2026-05-06 03:45 | 50.04299 | 8.56999 | 370 ft | 17 kts | 71° |
| 2026-05-06 03:46 | 50.04342 | 8.57174 | 369 ft | 17 kts | 69° |
| 2026-05-06 03:46 | 50.04385 | 8.57355 | 373 ft | 18 kts | 69° |
| 2026-05-06 03:46 | 50.04414 | 8.57473 | 370 ft | 10 kts | 69° |
| 2026-05-06 03:46 | 50.04437 | 8.57566 | 369 ft | 11 kts | 69° |
| 2026-05-06 03:47 | 50.04479 | 8.57737 | 371 ft | 24 kts | 70° |
| 2026-05-06 03:47 | 50.04543 | 8.58016 | 374 ft | 27 kts | 70° |
| 2026-05-06 03:47 | 50.04603 | 8.58271 | 377 ft | 22 kts | 70° |
| 2026-05-06 03:47 | 50.04648 | 8.58466 | 374 ft | 8 kts | 76° |
| 2026-05-06 03:48 | 50.04634 | 8.58547 | 375 ft | 10 kts | 128° |
| 2026-05-06 03:48 | 50.04564 | 8.58604 | 378 ft | 13 kts | 160° |
| 2026-05-06 03:48 | 50.04485 | 8.58564 | 379 ft | 14 kts | 238° |
| 2026-05-06 03:48 | 50.04471 | 8.58517 | 378 ft | 15 kts | 246° |
| 2026-05-06 03:49 | 50.04373 | 8.58120 | 375 ft | 70 kts | 250° |
| 2026-05-06 03:49 | 50.04134 | 8.57109 | 371 ft | 128 kts | 250° |
| 2026-05-06 03:49 | 50.03760 | 8.55565 | 365 ft | 176 kts | 248° |
| 2026-05-06 03:49 | 50.03295 | 8.53759 | 983 ft | 177 kts | 245° |
| 2026-05-06 03:50 | 50.02758 | 8.51974 | 1592 ft | 192 kts | 237° |
| 2026-05-06 03:50 | 50.01809 | 8.50347 | 1967 ft | 214 kts | 215° |
| 2026-05-06 03:50 | 50.00423 | 8.49372 | 2560 ft | 225 kts | 200° |
| 2026-05-06 03:50 | 49.98813 | 8.49257 | 3154 ft | 244 kts | 170° |
| 2026-05-06 03:51 | 49.97338 | 8.50668 | 3795 ft | 261 kts | 133° |
| 2026-05-06 03:51 | 49.96341 | 8.53055 | 4545 ft | 266 kts | 122° |
| 2026-05-06 03:51 | 49.95472 | 8.55604 | 5269 ft | 268 kts | 121° |
| 2026-05-06 03:51 | 49.94598 | 8.58180 | 6000 ft | 271 kts | 120° |
| 2026-05-06 03:52 | 49.94030 | 8.60999 | 6659 ft | 278 kts | 99° |
| 2026-05-06 03:52 | 49.93870 | 8.63966 | 7318 ft | 281 kts | 95° |
| 2026-05-06 03:52 | 49.93716 | 8.67010 | 7957 ft | 284 kts | 103° |
| 2026-05-06 03:52 | 49.93013 | 8.69827 | 8578 ft | 280 kts | 129° |
| 2026-05-06 03:53 | 49.91652 | 8.71922 | 9214 ft | 277 kts | 147° |
| 2026-05-06 03:53 | 49.90073 | 8.73698 | 9724 ft | 284 kts | 149° |
| 2026-05-06 03:53 | 49.88528 | 8.75695 | 10087 ft | 300 kts | 135° |
| 2026-05-06 03:53 | 49.87307 | 8.78446 | 10348 ft | 319 kts | 123° |
| 2026-05-06 03:54 | 49.86197 | 8.81515 | 10593 ft | 334 kts | 122° |
| 2026-05-06 03:54 | 49.85056 | 8.84746 | 10841 ft | 348 kts | 122° |
| 2026-05-06 03:54 | 49.83856 | 8.88096 | 11105 ft | 361 kts | 122° |
| 2026-05-06 03:54 | 49.82622 | 8.91515 | 11556 ft | 367 kts | 122° |
| 2026-05-06 03:55 | 49.81366 | 8.94985 | 12067 ft | 371 kts | 122° |
| 2026-05-06 03:55 | 49.80095 | 8.98486 | 12640 ft | 374 kts | 122° |
| 2026-05-06 03:55 | 49.78812 | 9.02012 | 13226 ft | 377 kts | 122° |
| 2026-05-06 03:55 | 49.77518 | 9.05563 | 13778 ft | 380 kts | 122° |
| 2026-05-06 03:56 | 49.76315 | 9.09228 | 14290 ft | 385 kts | 114° |
| 2026-05-06 03:56 | 49.75522 | 9.13222 | 14819 ft | 390 kts | 107° |
| 2026-05-06 03:56 | 49.74781 | 9.17203 | 15298 ft | 392 kts | 114° |
| 2026-05-06 03:56 | 49.73489 | 9.20887 | 15803 ft | 390 kts | 127° |
| 2026-05-06 03:57 | 49.71859 | 9.24250 | 16313 ft | 392 kts | 132° |
| 2026-05-06 03:57 | 49.70078 | 9.27453 | 16807 ft | 394 kts | 135° |
| 2026-05-06 03:57 | 49.68226 | 9.30595 | 17321 ft | 397 kts | 136° |
| 2026-05-06 03:57 | 49.66347 | 9.33743 | 17801 ft | 400 kts | 136° |
| 2026-05-06 03:58 | 49.64462 | 9.36928 | 18258 ft | 403 kts | 135° |
| 2026-05-06 03:58 | 49.62693 | 9.40318 | 18722 ft | 409 kts | 126° |
| 2026-05-06 03:58 | 49.61348 | 9.44216 | 19179 ft | 414 kts | 116° |
| 2026-05-06 03:58 | 49.60257 | 9.48357 | 19620 ft | 417 kts | 113° |
| 2026-05-06 03:59 | 49.59294 | 9.52595 | 20078 ft | 420 kts | 111° |
| 2026-05-06 03:59 | 49.58390 | 9.56896 | 20510 ft | 423 kts | 110° |
| 2026-05-06 03:59 | 49.57501 | 9.61232 | 20916 ft | 425 kts | 110° |
| 2026-05-06 03:59 | 49.56601 | 9.65590 | 21333 ft | 428 kts | 110° |
| 2026-05-06 04:00 | 49.55686 | 9.69959 | 21717 ft | 431 kts | 111° |
| 2026-05-06 04:00 | 49.54750 | 9.74352 | 22120 ft | 433 kts | 111° |
| 2026-05-06 04:00 | 49.53802 | 9.78711 | 22489 ft | 435 kts | 113° |
| 2026-05-06 04:00 | 49.52563 | 9.82947 | 22891 ft | 433 kts | 123° |
| 2026-05-06 04:01 | 49.50913 | 9.86815 | 23283 ft | 433 kts | 129° |
| 2026-05-06 04:01 | 49.49107 | 9.90528 | 23568 ft | 435 kts | 131° |
| 2026-05-06 04:01 | 49.47214 | 9.94175 | 23876 ft | 437 kts | 133° |
| 2026-05-06 04:01 | 49.45284 | 9.97785 | 24196 ft | 438 kts | 133° |
| 2026-05-06 04:02 | 49.43332 | 10.01404 | 24514 ft | 440 kts | 133° |
| 2026-05-06 04:02 | 49.41375 | 10.05035 | 24820 ft | 442 kts | 133° |
| 2026-05-06 04:02 | 49.39416 | 10.08687 | 25131 ft | 444 kts | 133° |
| 2026-05-06 04:02 | 49.37454 | 10.12361 | 25431 ft | 446 kts | 133° |
| 2026-05-06 04:03 | 49.35491 | 10.16054 | 25725 ft | 448 kts | 133° |
| 2026-05-06 04:03 | 49.33519 | 10.19760 | 26021 ft | 449 kts | 133° |
| 2026-05-06 04:03 | 49.31538 | 10.23476 | 26312 ft | 451 kts | 133° |
| 2026-05-06 04:03 | 49.29547 | 10.27206 | 26586 ft | 453 kts | 133° |
| 2026-05-06 04:04 | 49.27545 | 10.30953 | 26812 ft | 456 kts | 135° |
| 2026-05-06 04:04 | 49.25522 | 10.34730 | 26970 ft | 460 kts | 135° |
| 2026-05-06 04:04 | 49.23449 | 10.38363 | 27243 ft | 458 kts | 140° |
| 2026-05-06 04:04 | 49.21218 | 10.41847 | 27537 ft | 458 kts | 141° |
| 2026-05-06 04:05 | 49.18954 | 10.45282 | 27811 ft | 459 kts | 142° |
| 2026-05-06 04:05 | 49.16664 | 10.48700 | 28078 ft | 461 kts | 142° |
| 2026-05-06 04:05 | 49.14354 | 10.52118 | 28358 ft | 462 kts | 142° |
| 2026-05-06 04:05 | 49.12032 | 10.55547 | 28583 ft | 464 kts | 142° |
| 2026-05-06 04:06 | 49.09711 | 10.58976 | 28837 ft | 465 kts | 143° |
| 2026-05-06 04:06 | 49.07376 | 10.62420 | 29087 ft | 467 kts | 143° |
| 2026-05-06 04:06 | 49.05033 | 10.65876 | 29332 ft | 468 kts | 143° |
| 2026-05-06 04:06 | 49.02693 | 10.69334 | 29567 ft | 469 kts | 143° |
| 2026-05-06 04:07 | 49.00348 | 10.72786 | 29927 ft | 468 kts | 143° |
| 2026-05-06 04:07 | 48.98035 | 10.76182 | 30132 ft | 468 kts | 143° |
| 2026-05-06 04:07 | 48.95688 | 10.79621 | 30371 ft | 469 kts | 143° |
| 2026-05-06 04:07 | 48.93336 | 10.83062 | 30615 ft | 468 kts | 143° |
| 2026-05-06 04:08 | 48.90985 | 10.86503 | 30821 ft | 469 kts | 143° |
| 2026-05-06 04:08 | 48.88653 | 10.89925 | 30851 ft | 459 kts | 143° |
| 2026-05-06 04:08 | 48.84138 | 10.96546 | 30843 ft | 448 kts | 143° |
| 2026-05-06 04:09 | 48.79644 | 11.03085 | 30836 ft | 447 kts | 143° |
| 2026-05-06 04:09 | 48.75153 | 11.09608 | 30828 ft | 447 kts | 143° |
| 2026-05-06 04:10 | 48.70653 | 11.16110 | 30828 ft | 446 kts | 143° |
| 2026-05-06 04:10 | 48.66302 | 11.22744 | 30881 ft | 452 kts | 135° |
| 2026-05-06 04:11 | 48.64490 | 11.26699 | 30990 ft | 464 kts | 126° |
| 2026-05-06 04:11 | 48.63114 | 11.31164 | 31075 ft | 475 kts | 116° |
| 2026-05-06 04:11 | 48.60944 | 11.40705 | 31227 ft | 485 kts | 113° |
| 2026-05-06 04:12 | 48.58928 | 11.50504 | 31422 ft | 491 kts | 113° |
| 2026-05-06 04:12 | 48.57912 | 11.55425 | 31614 ft | 491 kts | 113° |
| 2026-05-06 04:12 | 48.56980 | 11.60405 | 31831 ft | 495 kts | 108° |
| 2026-05-06 04:13 | 48.56200 | 11.65449 | 32061 ft | 495 kts | 108° |
| 2026-05-06 04:13 | 48.55443 | 11.70533 | 32292 ft | 495 kts | 108° |
| 2026-05-06 04:13 | 48.54704 | 11.75600 | 32514 ft | 494 kts | 107° |
| 2026-05-06 04:13 | 48.53969 | 11.80669 | 32644 ft | 495 kts | 108° |
| 2026-05-06 04:14 | 48.53229 | 11.85758 | 32810 ft | 496 kts | 108° |
| 2026-05-06 04:14 | 48.52489 | 11.90830 | 33062 ft | 495 kts | 108° |
| 2026-05-06 04:14 | 48.51747 | 11.95890 | 33288 ft | 493 kts | 108° |
| 2026-05-06 04:14 | 48.51011 | 12.00873 | 33524 ft | 493 kts | 108° |
| 2026-05-06 04:15 | 48.50254 | 12.05974 | 33738 ft | 492 kts | 108° |
| 2026-05-06 04:15 | 48.49516 | 12.10930 | 33928 ft | 491 kts | 108° |
| 2026-05-06 04:15 | 48.48768 | 12.15952 | 34101 ft | 490 kts | 108° |
| 2026-05-06 04:15 | 48.48014 | 12.20961 | 34206 ft | 491 kts | 108° |
| 2026-05-06 04:16 | 48.46486 | 12.31002 | 34471 ft | 491 kts | 108° |
| 2026-05-06 04:16 | 48.45720 | 12.36025 | 34648 ft | 490 kts | 108° |
| 2026-05-06 04:16 | 48.44957 | 12.41021 | 34811 ft | 490 kts | 108° |
| 2026-05-06 04:17 | 48.43417 | 12.51045 | 34862 ft | 492 kts | 108° |
| 2026-05-06 04:17 | 48.41872 | 12.61063 | 34866 ft | 490 kts | 108° |
| 2026-05-06 04:18 | 48.40342 | 12.71064 | 34901 ft | 492 kts | 106° |
| 2026-05-06 04:18 | 48.39927 | 12.76203 | 35036 ft | 498 kts | 96° |
| 2026-05-06 04:18 | 48.39914 | 12.81359 | 35206 ft | 499 kts | 93° |
| 2026-05-06 04:19 | 48.40010 | 12.86574 | 35356 ft | 499 kts | 92° |
| 2026-05-06 04:19 | 48.40158 | 12.91791 | 35512 ft | 499 kts | 91° |
| 2026-05-06 04:19 | 48.40327 | 12.97009 | 35640 ft | 498 kts | 91° |
| 2026-05-06 04:19 | 48.40498 | 13.02214 | 35749 ft | 498 kts | 91° |
| 2026-05-06 04:20 | 48.40821 | 13.12674 | 35818 ft | 502 kts | 92° |
| 2026-05-06 04:20 | 48.40972 | 13.17933 | 35964 ft | 501 kts | 92° |
| 2026-05-06 04:20 | 48.41116 | 13.23161 | 36130 ft | 499 kts | 92° |
| 2026-05-06 04:21 | 48.41020 | 13.28345 | 36252 ft | 493 kts | 102° |
| 2026-05-06 04:21 | 48.40406 | 13.33383 | 36366 ft | 485 kts | 111° |
| 2026-05-06 04:21 | 48.39328 | 13.38151 | 36490 ft | 480 kts | 116° |
| 2026-05-06 04:21 | 48.38101 | 13.42815 | 36622 ft | 478 kts | 118° |
| 2026-05-06 04:22 | 48.35517 | 13.51936 | 36684 ft | 479 kts | 119° |
| 2026-05-06 04:23 | 48.31539 | 13.65748 | 36870 ft | 481 kts | 119° |
| 2026-05-06 04:23 | 48.28912 | 13.74950 | 36865 ft | 478 kts | 119° |
| 2026-05-06 04:24 | 48.26289 | 13.84142 | 36843 ft | 478 kts | 119° |
| 2026-05-06 04:24 | 48.23657 | 13.93324 | 36873 ft | 480 kts | 119° |
| 2026-05-06 04:25 | 48.21011 | 14.02518 | 36872 ft | 481 kts | 119° |
| 2026-05-06 04:25 | 48.18357 | 14.11710 | 36857 ft | 481 kts | 119° |
| 2026-05-06 04:26 | 48.15691 | 14.20905 | 36858 ft | 481 kts | 119° |
| 2026-05-06 04:26 | 48.13033 | 14.30037 | 36859 ft | 481 kts | 119° |
| 2026-05-06 04:27 | 48.10349 | 14.39223 | 36863 ft | 482 kts | 119° |
| 2026-05-06 04:27 | 48.07659 | 14.48396 | 36873 ft | 481 kts | 119° |
| 2026-05-06 04:28 | 48.04964 | 14.57552 | 36874 ft | 481 kts | 119° |
| 2026-05-06 04:28 | 48.02260 | 14.66702 | 36875 ft | 481 kts | 119° |
| 2026-05-06 04:29 | 47.99547 | 14.75852 | 36884 ft | 481 kts | 119° |